Time;durP1;ratioP1;P1;durP2;ratioP2;P2;SDS_P1;SDS_P2;PMS_P1;PMS_P2;Temp;Humidity;BMP_temperature;BMP_pressure;BME280_temperature;BME280_humidity;BME280_pressure;Samples;Min_cycle;Max_cycle;Signal;HPM_P1;HPM_P2
2021/05/05 00:01:54;;;;;;;;;;;;;;;2.61;100.00;97852.69;5091848;28;19920;-78
2021/05/05 00:04:21;;;;;;;;;;;;;;;2.72;100.00;97853.44;5063361;28;19926;-78
2021/05/05 00:06:49;;;;;;;;;;;;;;;2.81;100.00;97864.81;5076195;28;19925;-78
2021/05/05 00:09:16;;;;;;;;;;;;;;;2.88;100.00;97865.56;5075945;28;19920;-78
2021/05/05 00:11:43;;;;;;;;;;;;;;;2.91;100.00;97864.75;5055865;28;19921;-78
2021/05/05 00:14:11;;;;;;;;;;;;;;;2.95;100.00;97873.03;5074634;28;19931;-78
2021/05/05 00:16:38;;;;;;;;;;;;;;;2.97;100.00;97873.44;5057392;28;20451;-78
2021/05/05 00:19:04;;;;;;;;;;;;;;;2.93;100.00;97873.44;5057887;28;19920;-78
2021/05/05 00:21:31;;;;;;;;;;;;;;;2.88;100.00;97873.03;5091764;28;20272;-78
2021/05/05 00:23:59;;;;;;;;;;;;;;;2.81;100.00;97873.09;5075748;28;19947;-78
2021/05/05 00:26:26;;;;;;;;;;;;;;;2.76;100.00;97876.25;5075889;28;19990;-78
2021/05/05 00:28:52;;;;;;;;;;;;;;;2.76;100.00;97888.09;5075113;28;19924;-78
2021/05/05 00:31:19;;;;;;;;;;;;;;;2.81;100.00;97892.41;5075005;28;19920;-78
2021/05/05 00:33:45;;;;;;;;;;;;;;;2.77;100.00;97892.41;5056042;28;19927;-78
2021/05/05 00:36:12;;;;;;;;;;;;;;;2.76;100.00;97888.09;5075603;28;20383;-78
2021/05/05 00:38:39;;;;;;;;;;;;;;;2.80;100.00;97893.59;5074750;28;19927;-78
2021/05/05 00:41:09;;;;;;;;;;;;;;;2.76;100.00;97881.78;5057209;28;20022;-78
2021/05/05 00:43:36;;;;;;;;;;;;;;;2.73;100.00;97888.09;5040872;28;20279;-78
2021/05/05 00:46:03;;;;;;;;;;;;;;;2.77;100.00;97895.16;5075341;28;20012;-78
2021/05/05 00:48:30;;;;;;;;;;;;;;;2.74;100.00;97892.44;5075410;28;19927;-78
2021/05/05 00:50:58;;;;;;;;;;;;;;;2.75;100.00;97896.75;5057779;28;19927;-77
2021/05/05 00:53:24;;;;;;;;;;;;;;;2.72;100.00;97890.09;5057349;28;19927;-77
2021/05/05 00:55:51;;;;;;;;;;;;;;;2.75;100.00;97886.53;5057461;28;19966;-77
2021/05/05 00:58:18;;;;;;;;;;;;;;;2.74;100.00;97886.91;5075413;28;19974;-77
2021/05/05 01:00:46;;;;;;;;;;;;;;;2.65;100.00;97898.34;5075019;28;20298;-77
2021/05/05 01:03:13;;;;;;;;;;;;;;;2.59;100.00;97894.44;5075241;28;19920;-77
2021/05/05 01:05:40;;;;;;;;;;;;;;;2.60;100.00;97895.25;5075106;28;20329;-77
2021/05/05 01:08:08;;;;;;;;;;;;;;;2.58;100.00;97903.09;5074895;28;19925;-77
2021/05/05 01:10:34;;;;;;;;;;;;;;;2.54;100.00;97902.34;5074886;28;19920;-77
2021/05/05 01:13:01;;;;;;;;;;;;;;;2.54;100.00;97902.34;5075164;28;19920;-77
2021/05/05 01:15:28;;;;;;;;;;;;;;;2.55;100.00;97909.41;5090154;28;20017;-77
2021/05/05 01:17:55;;;;;;;;;;;;;;;2.47;100.00;97907.88;5056992;28;19921;-77
2021/05/05 01:20:26;;;;;;;;;;;;;;;2.53;100.00;97901.56;5074903;28;19932;-77
2021/05/05 01:22:53;;;;;;;;;;;;;;;2.44;100.00;97900.41;5073386;28;19930;-77
2021/05/05 01:25:19;;;;;;;;;;;;;;;2.46;100.00;97900.78;5074772;28;19931;-77
2021/05/05 01:27:47;;;;;;;;;;;;;;;2.45;100.00;97904.72;5056560;28;19925;-77
2021/05/05 01:30:15;;;;;;;;;;;;;;;2.42;100.00;97905.53;5074625;28;19920;-77
2021/05/05 01:32:41;;;;;;;;;;;;;;;2.42;100.00;97905.53;5074574;28;20057;-77
2021/05/05 01:35:09;;;;;;;;;;;;;;;2.43;100.00;97912.59;5090073;28;19920;-77
2021/05/05 01:37:36;;;;;;;;;;;;;;;2.40;100.00;97916.16;5039906;28;20398;-77
2021/05/05 01:40:04;;;;;;;;;;;;;;;2.38;100.00;97904.75;5074302;28;19928;-77
2021/05/05 01:42:30;;;;;;;;;;;;;;;2.41;100.00;97910.25;5074448;28;19921;-77
2021/05/05 01:44:58;;;;;;;;;;;;;;;2.41;100.00;97906.72;5073686;28;20379;-77
2021/05/05 01:47:25;;;;;;;;;;;;;;;2.46;100.00;97911.81;5074154;28;19920;-77
2021/05/05 01:49:51;;;;;;;;;;;;;;;2.44;100.00;97911.44;5056328;28;20359;-77
2021/05/05 01:52:20;;;;;;;;;;;;;;;2.45;100.00;97915.75;5073983;28;19927;-77
2021/05/05 01:54:47;;;;;;;;;;;;;;;2.48;100.00;97918.53;5074055;28;20306;-77
2021/05/05 01:57:37;;;;;;;;;;;;;;;2.57;100.00;97921.66;5056101;28;19943;-77
2021/05/05 02:00:11;;;;;;;;;;;;;;;2.62;100.00;97925.97;5073877;28;19966;-77
2021/05/05 02:02:44;;;;;;;;;;;;;;;2.59;100.00;97926.75;5073890;28;19920;-77
2021/05/05 02:05:19;;;;;;;;;;;;;;;2.57;100.00;97923.59;5071515;28;19974;-77
2021/05/05 02:07:55;;;;;;;;;;;;;;;2.65;100.00;97925.16;5055966;28;19928;-77
2021/05/05 02:10:22;;;;;;;;;;;;;;;2.64;100.00;97918.84;5073644;28;20299;-77
2021/05/05 02:12:49;;;;;;;;;;;;;;;2.58;100.00;97925.16;5055956;28;19920;-77
2021/05/05 02:15:20;;;;;;;;;;;;;;;2.59;100.00;97926.75;5089537;28;19920;-77
2021/05/05 02:17:47;;;;;;;;;;;;;;;2.55;100.00;97929.53;5073401;28;20011;-77
2021/05/05 02:20:15;;;;;;;;;;;;;;;2.46;100.00;97928.34;5089230;28;19920;-77
2021/05/05 02:22:42;;;;;;;;;;;;;;;2.46;100.00;97936.63;5055587;28;19954;-77
2021/05/05 02:25:11;;;;;;;;;;;;;;;2.34;100.00;97932.31;5055868;28;19920;-77
2021/05/05 02:27:39;;;;;;;;;;;;;;;2.31;100.00;97935.88;5055340;28;19920;-77
2021/05/05 02:30:10;;;;;;;;;;;;;;;2.34;100.00;97937.03;5089137;28;19920;-77
2021/05/05 02:32:52;;;;;;;;;;;;;;;2.41;100.00;97937.03;5073452;28;19977;-77
2021/05/05 02:35:20;;;;;;;;;;;;;;;2.44;100.00;97941.78;5088820;28;19920;-77
2021/05/05 02:37:51;;;;;;;;;;;;;;;2.56;100.00;97938.59;5056132;28;19920;-77
2021/05/05 02:40:19;;;;;;;;;;;;;;;2.53;100.00;97939.38;5073195;28;20410;-77
2021/05/05 02:42:47;;;;;;;;;;;;;;;2.52;100.00;97940.56;5055015;28;20291;-77
2021/05/05 02:45:14;;;;;;;;;;;;;;;2.51;100.00;97941.75;5073084;28;19920;-77
2021/05/05 02:47:41;;;;;;;;;;;;;;;2.54;100.00;97946.47;5073200;28;19924;-77
2021/05/05 02:50:08;;;;;;;;;;;;;;;2.52;100.00;97943.31;5071891;28;19927;-77
2021/05/05 02:52:35;;;;;;;;;;;;;;;2.53;100.00;97937.41;5073331;28;19920;-76
2021/05/05 02:55:03;;;;;;;;;;;;;;;2.39;100.00;97933.88;5072886;28;20071;-77
2021/05/05 02:57:32;;;;;;;;;;;;;;;2.38;100.00;97935.09;5072495;28;19924;-77
2021/05/05 02:59:58;;;;;;;;;;;;;;;2.35;100.00;97946.91;5073253;28;19924;-77
2021/05/05 03:02:26;;;;;;;;;;;;;;;2.35;100.00;97939.41;5073053;28;19959;-77
2021/05/05 03:04:53;;;;;;;;;;;;;;;2.46;100.00;97940.19;5055122;28;19935;-77
2021/05/05 03:07:20;;;;;;;;;;;;;;;2.43;100.00;97940.19;5072930;28;20280;-77
2021/05/05 03:09:47;;;;;;;;;;;;;;;2.18;100.00;97931.16;5072970;28;20296;-77
2021/05/05 03:12:13;;;;;;;;;;;;;;;2.05;100.00;97941.00;5072819;28;19932;-78
2021/05/05 03:14:40;;;;;;;;;;;;;;;1.95;100.00;97941.81;5073081;28;20066;-77
2021/05/05 03:17:06;;;;;;;;;;;;;;;1.79;100.00;97945.72;5072978;28;20368;-77
2021/05/05 03:19:33;;;;;;;;;;;;;;;1.71;100.00;97940.63;5072733;28;19920;-77
2021/05/05 03:22:00;;;;;;;;;;;;;;;1.67;100.00;97937.06;5071927;28;19963;-77
2021/05/05 03:24:27;;;;;;;;;;;;;;;1.64;100.00;97943.34;5108216;28;20375;-78
2021/05/05 03:26:53;;;;;;;;;;;;;;;1.58;100.00;97940.19;5074750;28;19920;-78
2021/05/05 03:29:23;;;;;;;;;;;;;;;1.57;100.00;97937.84;5092937;28;20275;-78
2021/05/05 03:31:49;;;;;;;;;;;;;;;1.81;100.00;97937.88;5093166;28;19920;-78
2021/05/05 03:34:16;;;;;;;;;;;;;;;2.03;100.00;97943.38;5065040;28;19920;-77
2021/05/05 03:36:43;;;;;;;;;;;;;;;2.14;100.00;97942.19;5108706;28;20002;-77
2021/05/05 03:39:10;;;;;;;;;;;;;;;2.21;100.00;97950.47;5092561;28;20469;-77
2021/05/05 03:41:37;;;;;;;;;;;;;;;2.21;100.00;97958.72;5093040;28;19927;-77
2021/05/05 03:44:04;;;;;;;;;;;;;;;2.32;100.00;97950.44;5092799;28;19985;-77
2021/05/05 03:46:31;;;;;;;;;;;;;;;2.28;100.00;97952.41;5075012;28;19927;-77
2021/05/05 03:48:58;;;;;;;;;;;;;;;2.27;100.00;97954.41;5074629;28;19920;-77
2021/05/05 03:51:25;;;;;;;;;;;;;;;2.30;100.00;97947.28;5092823;28;19920;-77
2021/05/05 03:53:51;;;;;;;;;;;;;;;2.34;100.00;97959.09;5092722;28;20360;-77
2021/05/05 03:56:18;;;;;;;;;;;;;;;2.42;100.00;97957.91;5092512;28;19924;-77
2021/05/05 03:58:45;;;;;;;;;;;;;;;2.44;100.00;97955.56;5092960;28;20036;-77
2021/05/05 04:01:12;;;;;;;;;;;;;;;2.45;100.00;97962.63;5092677;28;19943;-77
2021/05/05 04:03:38;;;;;;;;;;;;;;;2.43;100.00;97967.75;5092723;28;19920;-77
2021/05/05 04:06:05;;;;;;;;;;;;;;;2.42;100.00;97960.66;5092583;28;20388;-77
2021/05/05 04:08:33;;;;;;;;;;;;;;;2.43;100.00;97967.75;5095366;28;19923;-77
2021/05/05 04:11:00;;;;;;;;;;;;;;;2.41;100.00;97970.13;5096299;28;20023;-77
2021/05/05 04:13:26;;;;;;;;;;;;;;;2.40;100.00;97958.31;5078195;28;19920;-77
2021/05/05 04:16:11;;;;;;;;;;;;;;;2.37;100.00;97958.31;5096037;28;19923;-77
2021/05/05 04:18:56;;;;;;;;;;;;;;;2.35;100.00;97968.97;5080882;28;19923;-77
2021/05/05 04:21:40;;;;;;;;;;;;;;;2.35;100.00;97974.47;5092432;28;20007;-77
2021/05/05 04:24:25;;;;;;;;;;;;;;;2.31;100.00;97981.94;5088109;28;20011;-77
2021/05/05 04:26:51;;;;;;;;;;;;;;;2.31;100.00;97979.97;5095905;28;19920;-77
2021/05/05 04:29:19;;;;;;;;;;;;;;;2.33;100.00;97985.09;5096030;28;20399;-77
2021/05/05 04:31:46;;;;;;;;;;;;;;;2.28;100.00;97983.53;5111270;28;20264;-77
2021/05/05 04:34:13;;;;;;;;;;;;;;;2.25;100.00;97978.00;5095929;28;19928;-77
2021/05/05 04:36:40;;;;;;;;;;;;;;;2.25;100.00;97980.75;5095913;28;20034;-77
2021/05/05 04:39:06;;;;;;;;;;;;;;;2.35;100.00;97988.25;5060470;28;19927;-77
2021/05/05 04:41:34;;;;;;;;;;;;;;;2.28;100.00;97986.28;5070051;28;19969;-77
2021/05/05 04:44:01;;;;;;;;;;;;;;;2.27;100.00;97983.91;5095750;28;19926;-77
2021/05/05 04:46:28;;;;;;;;;;;;;;;2.24;100.00;97987.47;5077384;28;19927;-77
2021/05/05 04:48:54;;;;;;;;;;;;;;;2.26;100.00;97983.13;5077650;28;20553;-77
2021/05/05 04:51:21;;;;;;;;;;;;;;;2.27;100.00;97992.97;5095812;28;19978;-77
2021/05/05 04:53:48;;;;;;;;;;;;;;;2.19;100.00;97985.88;5095182;28;19967;-78
2021/05/05 04:56:15;;;;;;;;;;;;;;;2.18;100.00;97980.78;5095572;28;19962;-78
2021/05/05 04:58:41;;;;;;;;;;;;;;;2.21;100.00;97989.03;5095608;28;19962;-77
2021/05/05 05:01:08;;;;;;;;;;;;;;;2.27;100.00;97986.66;5077042;28;20016;-78
2021/05/05 05:03:34;;;;;;;;;;;;;;;2.29;100.00;97985.09;5077304;28;20323;-78
2021/05/05 05:06:03;;;;;;;;;;;;;;;2.41;100.00;97998.47;5077363;28;19924;-78
2021/05/05 05:08:29;;;;;;;;;;;;;;;2.62;100.00;98000.44;5095281;28;19959;-78
2021/05/05 05:10:56;;;;;;;;;;;;;;;2.77;100.00;97999.22;5077326;28;19927;-77
2021/05/05 05:13:23;;;;;;;;;;;;;;;2.89;100.00;98001.53;5095247;28;20393;-78
2021/05/05 05:15:50;;;;;;;;;;;;;;;3.13;100.00;98000.69;5076992;28;19927;-78
2021/05/05 05:18:17;;;;;;;;;;;;;;;3.31;100.00;98001.41;5085157;28;19921;-78
2021/05/05 05:20:47;;;;;;;;;;;;;;;3.44;100.00;98011.59;5066874;28;19925;-78
2021/05/05 05:23:25;;;;;;;;;;;;;;;3.38;100.00;98013.19;5061350;28;19920;-78
2021/05/05 05:25:53;;;;;;;;;;;;;;;3.38;100.00;98009.63;5077005;28;19924;-78
2021/05/05 05:28:21;;;;;;;;;;;;;;;3.44;100.00;98021.84;5076581;28;20267;-78
2021/05/05 05:30:48;;;;;;;;;;;;;;;3.38;100.00;98026.19;5092974;28;20256;-78
2021/05/05 05:33:15;;;;;;;;;;;;;;;3.75;100.00;98020.91;5079014;28;20429;-77
2021/05/05 05:35:42;;;;;;;;;;;;;;;4.20;100.00;98030.88;5049458;28;20398;-77
2021/05/05 05:38:08;;;;;;;;;;;;;;;4.24;100.00;98025.31;5088101;28;19920;-77
2021/05/05 05:40:35;;;;;;;;;;;;;;;4.53;100.00;98021.13;5089967;28;19927;-77
2021/05/05 05:43:02;;;;;;;;;;;;;;;4.83;100.00;98024.78;5074830;28;19928;-78
2021/05/05 05:45:29;;;;;;;;;;;;;;;5.29;100.00;98027.84;5073634;28;20376;-78
2021/05/05 05:47:56;;;;;;;;;;;;;;;5.95;100.00;98027.44;5073528;28;19927;-78
2021/05/05 05:50:22;;;;;;;;;;;;;;;6.31;100.00;98015.41;5060854;28;19927;-78
2021/05/05 05:52:49;;;;;;;;;;;;;;;6.49;100.00;98026.22;5050186;28;19920;-76
2021/05/05 05:55:18;;;;;;;;;;;;;;;6.60;100.00;98019.28;5050433;28;19925;-79
2021/05/05 05:57:45;;;;;;;;;;;;;;;6.54;100.00;98018.19;5057004;28;19924;-79
2021/05/05 06:00:14;;;;;;;;;;;;;;;6.75;100.00;98030.94;5050764;28;20392;-79
2021/05/05 06:02:41;;;;;;;;;;;;;;;6.37;100.00;98026.78;5052209;28;19920;-80
2021/05/05 06:05:08;;;;;;;;;;;;;;;6.13;100.00;98028.75;5070608;28;20390;-79
2021/05/05 06:07:35;;;;;;;;;;;;;;;6.30;100.00;98024.16;5068367;28;19920;-80
2021/05/05 06:10:02;;;;;;;;;;;;;;;6.18;100.00;98008.84;5068703;28;19920;-79
2021/05/05 06:12:28;;;;;;;;;;;;;;;5.99;100.00;98012.31;5052496;28;19973;-79
2021/05/05 06:14:55;;;;;;;;;;;;;;;5.56;100.00;98014.84;5069628;28;19920;-79
2021/05/05 06:17:22;;;;;;;;;;;;;;;5.24;100.00;98011.69;5052261;28;19920;-79
2021/05/05 06:19:49;;;;;;;;;;;;;;;5.34;100.00;98021.88;5069741;28;19924;-80
2021/05/05 06:22:15;;;;;;;;;;;;;;;5.80;100.00;98010.16;5069811;28;20249;-80
2021/05/05 06:24:43;;;;;;;;;;;;;;;6.64;100.00;98019.22;5069687;28;20034;-78
2021/05/05 06:27:10;;;;;;;;;;;;;;;7.65;100.00;98015.72;5072905;28;20603;-79
2021/05/05 06:29:37;;;;;;;;;;;;;;;8.87;100.00;98006.50;5068988;28;19920;-79
2021/05/05 06:32:04;;;;;;;;;;;;;;;8.45;100.00;98013.88;5077041;28;19927;-79
2021/05/05 06:34:32;;;;;;;;;;;;;;;9.04;100.00;98014.38;5076908;28;19930;-80
2021/05/05 06:36:59;;;;;;;;;;;;;;;9.61;100.00;98010.81;5079260;28;19931;-80
2021/05/05 06:39:25;;;;;;;;;;;;;;;10.12;100.00;98008.91;5025208;28;19956;-80
2021/05/05 06:41:52;;;;;;;;;;;;;;;11.00;100.00;98018.00;5071933;28;19920;-79
2021/05/05 06:44:19;;;;;;;;;;;;;;;10.83;100.00;98025.75;5054871;28;19920;-79
2021/05/05 06:46:48;;;;;;;;;;;;;;;11.37;100.00;98031.06;5073591;28;19955;-82
2021/05/05 06:49:15;;;;;;;;;;;;;;;11.19;100.00;98030.13;5073268;28;20287;-84
2021/05/05 06:51:42;;;;;;;;;;;;;;;11.44;100.00;98025.22;5049594;28;19928;-79
2021/05/05 06:54:09;;;;;;;;;;;;;;;11.95;100.00;98025.78;5065372;28;20364;-78
2021/05/05 06:56:37;;;;;;;;;;;;;;;11.22;100.00;98020.84;5050259;28;20003;-78
2021/05/05 06:59:04;;;;;;;;;;;;;;;11.87;100.00;98019.66;5068312;28;19924;-78
2021/05/05 07:01:31;;;;;;;;;;;;;;;11.98;100.00;98022.84;5052730;28;19920;-78
2021/05/05 07:03:58;;;;;;;;;;;;;;;12.19;100.00;98010.81;5083180;28;19920;-81
2021/05/05 07:06:25;;;;;;;;;;;;;;;12.45;100.00;98006.56;5076220;28;19986;-83
2021/05/05 07:08:51;;;;;;;;;;;;;;;12.88;100.00;98010.44;5073557;28;19920;-82
2021/05/05 07:11:18;;;;;;;;;;;;;;;12.41;100.00;98008.75;5038016;28;19927;-81
2021/05/05 07:13:47;;;;;;;;;;;;;;;12.47;100.00;98009.72;5062488;28;19920;-80
2021/05/05 07:16:15;;;;;;;;;;;;;;;12.52;100.00;98011.91;5051464;28;19924;-81
2021/05/05 07:18:42;;;;;;;;;;;;;;;12.16;100.00;98016.56;5086177;28;20131;-79
2021/05/05 07:21:09;;;;;;;;;;;;;;;12.00;100.00;98025.97;5072545;28;19928;-81
2021/05/05 07:23:36;;;;;;;;;;;;;;;12.50;100.00;98034.00;5064262;28;19970;-78
2021/05/05 07:26:03;;;;;;;;;;;;;;;12.96;100.00;98022.91;5068861;28;19931;-82
2021/05/05 07:28:30;;;;;;;;;;;;;;;12.91;100.00;98037.53;5055127;28;19920;-82
2021/05/05 07:30:58;;;;;;;;;;;;;;;12.75;100.00;98030.97;5063854;28;19975;-82
2021/05/05 07:33:25;;;;;;;;;;;;;;;10.98;100.00;98045.59;5081970;28;20010;-82
2021/05/05 07:35:55;;;;;;;;;;;;;;;9.77;100.00;98046.22;5107006;28;19920;-82
2021/05/05 07:46:43;;;;;;;;;;;;;;;8.47;100.00;98061.56;5091331;28;19927;-81
2021/05/05 07:49:13;;;;;;;;;;;;;;;8.56;100.00;98052.59;5074467;28;19927;-79
2021/05/05 07:51:39;;;;;;;;;;;;;;;9.64;100.00;98048.19;5082480;28;19912;-77
2021/05/05 07:54:05;;;;;;;;;;;;;;;9.30;100.00;98056.31;5088871;28;19963;-77
2021/05/05 07:56:31;;;;;;;;;;;;;;;9.40;100.00;98049.66;5099075;28;19912;-82
2021/05/05 07:59:01;;;;;;;;;;;;;;;8.30;100.00;98056.44;5078898;28;19930;-78
2021/05/05 08:01:28;;;;;;;;;;;;;;;8.16;100.00;98051.94;5065486;28;20419;-82
2021/05/05 08:03:55;;;;;;;;;;;;;;;8.33;100.00;98047.97;5062600;28;19921;-78
2021/05/05 08:06:21;;;;;;;;;;;;;;;7.90;100.00;98055.69;5076086;28;19921;-79
2021/05/05 08:08:48;;;;;;;;;;;;;;;7.59;100.00;98056.34;5057836;28;19969;-79
2021/05/05 08:11:15;;;;;;;;;;;;;;;7.88;100.00;98069.22;5074859;28;19928;-79
2021/05/05 08:13:44;;;;;;;;;;;;;;;8.29;100.00;98061.19;5075122;28;20025;-75
2021/05/05 08:16:10;;;;;;;;;;;;;;;8.96;100.00;98060.38;5057447;28;19920;-77
2021/05/05 08:18:38;;;;;;;;;;;;;;;8.95;100.00;98067.13;5075957;28;19920;-81
2021/05/05 08:21:06;;;;;;;;;;;;;;;8.50;100.00;98059.91;5075847;28;19928;-81
2021/05/05 08:23:34;;;;;;;;;;;;;;;8.79;100.00;98069.16;5056460;28;20306;-81
2021/05/05 08:26:01;;;;;;;;;;;;;;;8.65;100.00;98073.06;5074804;28;20011;-81
2021/05/05 08:28:27;;;;;;;;;;;;;;;8.93;100.00;98077.16;5045458;28;19921;-80
2021/05/05 08:30:54;;;;;;;;;;;;;;;9.23;100.00;98076.00;5058437;28;19927;-78
2021/05/05 08:33:21;;;;;;;;;;;;;;;8.83;100.00;98072.66;5081972;28;19920;-81
2021/05/05 08:35:48;;;;;;;;;;;;;;;8.41;100.00;98079.22;5094862;28;19965;-80
2021/05/05 08:38:15;;;;;;;;;;;;;;;8.31;100.00;98074.69;5110247;28;19920;-80
2021/05/05 08:40:41;;;;;;;;;;;;;;;8.11;100.00;98077.47;5086989;28;19973;-80
2021/05/05 08:43:08;;;;;;;;;;;;;;;8.11;100.00;98083.03;5059771;28;19932;-80
2021/05/05 08:45:36;;;;;;;;;;;;;;;7.88;100.00;98074.78;5077525;28;19926;-81
2021/05/05 08:48:06;;;;;;;;;;;;;;;7.95;100.00;98091.31;5078550;28;19924;-80
2021/05/05 08:50:33;;;;;;;;;;;;;;;7.82;100.00;98078.50;5069685;28;19924;-79
2021/05/05 08:53:00;;;;;;;;;;;;;;;7.60;100.00;98094.84;5074997;28;19920;-78
2021/05/05 08:55:28;;;;;;;;;;;;;;;7.56;100.00;98088.53;5084760;28;20299;-78
2021/05/05 08:57:55;;;;;;;;;;;;;;;7.45;100.00;98095.53;5060908;28;19920;-78
2021/05/05 09:00:24;;;;;;;;;;;;;;;7.47;100.00;98098.69;5103449;28;20015;-79
2021/05/05 09:02:51;;;;;;;;;;;;;;;7.57;100.00;98092.91;5081889;28;19998;-79
2021/05/05 09:05:50;;;;;;;;;;;;;;;7.51;100.00;98099.38;5076296;28;20359;-79
2021/05/05 09:08:18;;;;;;;;;;;;;;;7.13;100.00;98101.66;5076414;28;19924;-80
2021/05/05 09:10:51;;;;;;;;;;;;;;;7.18;100.00;98099.19;5094224;28;19981;-81
2021/05/05 09:13:22;;;;;;;;;;;;;;;7.17;100.00;98110.72;5094196;28;19920;-81
2021/05/05 09:16:05;;;;;;;;;;;;;;;7.38;100.00;98104.78;5059604;28;19920;-81
2021/05/05 09:18:49;;;;;;;;;;;;;;;7.44;100.00;98105.84;5094320;28;19943;-81
2021/05/05 09:21:25;;;;;;;;;;;;;;;7.54;100.00;98110.44;5094134;28;20444;-81
2021/05/05 09:24:25;;;;;;;;;;;;;;;7.78;100.00;98116.72;5094161;28;19985;-81
2021/05/05 09:26:55;;;;;;;;;;;;;;;7.93;100.00;98116.00;5068697;28;20053;-81
2021/05/05 09:29:37;;;;;;;;;;;;;;;8.16;100.00;98115.94;5079869;28;19927;-82
2021/05/05 09:32:04;;;;;;;;;;;;;;;7.80;100.00;98106.72;5090132;28;20401;-81
2021/05/05 09:34:31;;;;;;;;;;;;;;;7.72;100.00;98115.66;5109422;28;20375;-81
2021/05/05 09:36:59;;;;;;;;;;;;;;;7.46;100.00;98119.31;5075503;28;19931;-81
2021/05/05 09:39:27;;;;;;;;;;;;;;;7.52;100.00;98118.41;5075727;28;19924;-82
2021/05/05 09:41:54;;;;;;;;;;;;;;;7.85;100.00;98125.69;5093521;28;20125;-81
2021/05/05 09:44:21;;;;;;;;;;;;;;;8.17;100.00;98120.28;5093715;28;19920;-82
2021/05/05 09:46:51;;;;;;;;;;;;;;;8.43;100.00;98116.56;5093607;28;19924;-80
2021/05/05 09:49:17;;;;;;;;;;;;;;;8.07;100.00;98135.19;5093636;28;19924;-79
2021/05/05 09:51:46;;;;;;;;;;;;;;;8.16;100.00;98134.63;5093212;28;19920;-80
2021/05/05 09:54:37;;;;;;;;;;;;;;;8.51;100.00;98128.31;5094347;28;19947;-80
2021/05/05 09:57:14;;;;;;;;;;;;;;;8.90;100.00;98122.59;5080091;28;20283;-79
2021/05/05 09:59:54;;;;;;;;;;;;;;;8.58;100.00;98122.56;5034796;28;19927;-80
2021/05/05 10:02:24;;;;;;;;;;;;;;;8.02;100.00;98126.56;5084766;28;20283;-77
2021/05/05 10:05:01;;;;;;;;;;;;;;;7.94;100.00;98139.81;5079430;28;19973;-78
2021/05/05 10:07:28;;;;;;;;;;;;;;;8.19;100.00;98134.53;5088212;28;20363;-78
2021/05/05 10:09:55;;;;;;;;;;;;;;;8.18;100.00;98138.53;5034459;28;20053;-79
2021/05/05 10:12:23;;;;;;;;;;;;;;;8.18;100.00;98127.41;5090611;28;19940;-78
2021/05/05 10:15:00;;;;;;;;;;;;;;;7.79;100.00;98135.75;5083621;28;19931;-78
2021/05/05 10:17:27;;;;;;;;;;;;;;;7.69;100.00;98128.41;5074044;28;19928;-79
2021/05/05 10:19:54;;;;;;;;;;;;;;;7.81;100.00;98136.13;5083036;28;19921;-78
2021/05/05 10:22:21;;;;;;;;;;;;;;;7.60;100.00;98139.31;5087208;28;20280;-78
2021/05/05 10:24:48;;;;;;;;;;;;;;;7.64;100.00;98139.22;5089809;28;20011;-78
2021/05/05 10:27:16;;;;;;;;;;;;;;;7.85;100.00;98141.59;5073173;28;19920;-78
2021/05/05 10:29:44;;;;;;;;;;;;;;;7.86;100.00;98145.97;5072989;28;19951;-78
2021/05/05 10:32:13;;;;;;;;;;;;;;;7.80;100.00;98142.88;5058441;28;19966;-78
2021/05/05 10:34:48;;;;;;;;;;;;;;;7.69;100.00;98145.09;5084009;28;19928;-78
2021/05/05 10:37:14;;;;;;;;;;;;;;;7.75;100.00;98146.19;5088984;28;19920;-78
2021/05/05 10:39:42;;;;;;;;;;;;;;;7.63;100.00;98143.22;5067996;28;19920;-78
2021/05/05 10:42:12;;;;;;;;;;;;;;;7.78;100.00;98136.97;5084898;28;19920;-78
2021/05/05 10:44:40;;;;;;;;;;;;;;;8.07;100.00;98142.75;5063607;28;19974;-78
2021/05/05 10:47:24;;;;;;;;;;;;;;;8.11;100.00;98138.69;5085585;28;19920;-76
2021/05/05 10:50:00;;;;;;;;;;;;;;;8.12;100.00;98140.25;5085447;28;19924;-77
2021/05/05 10:52:29;;;;;;;;;;;;;;;7.95;100.00;98135.81;5069959;28;19927;-81
2021/05/05 10:54:56;;;;;;;;;;;;;;;7.73;100.00;98142.22;5072428;28;19943;-81
2021/05/05 10:57:38;;;;;;;;;;;;;;;7.70;100.00;98140.31;5039386;28;19928;-81
2021/05/05 11:00:10;;;;;;;;;;;;;;;8.00;100.00;98138.13;5073428;28;19920;-81
2021/05/05 11:02:44;;;;;;;;;;;;;;;8.21;100.00;98139.69;5067963;28;19924;-81
2021/05/05 11:05:11;;;;;;;;;;;;;;;8.46;100.00;98137.97;5045914;28;19927;-81
2021/05/05 11:07:57;;;;;;;;;;;;;;;8.48;100.00;98134.75;5073514;28;20007;-81
2021/05/05 11:10:33;;;;;;;;;;;;;;;8.53;100.00;98135.00;5055747;28;19966;-82
2021/05/05 11:13:01;;;;;;;;;;;;;;;8.64;100.00;98143.13;5073610;28;19921;-81
2021/05/05 11:15:41;;;;;;;;;;;;;;;8.64;100.00;98137.53;5073557;28;20007;-81
2021/05/05 11:18:38;;;;;;;;;;;;;;;8.55;100.00;98145.72;5075701;28;20370;-82
2021/05/05 11:21:09;;;;;;;;;;;;;;;8.59;100.00;98140.84;5076448;28;19928;-81
2021/05/05 11:23:40;;;;;;;;;;;;;;;8.92;100.00;98148.81;5059490;28;20241;-81
2021/05/05 11:26:19;;;;;;;;;;;;;;;9.27;100.00;98157.53;5059595;28;19928;-81
2021/05/05 11:28:55;;;;;;;;;;;;;;;9.60;100.00;98162.63;5077406;28;19965;-81
2021/05/05 11:31:41;;;;;;;;;;;;;;;9.92;100.00;98165.31;5072138;28;19920;-82
2021/05/05 11:34:07;;;;;;;;;;;;;;;9.93;100.00;98157.75;5063350;28;19920;-81
2021/05/05 11:36:34;;;;;;;;;;;;;;;9.92;100.00;98158.97;5072735;28;19924;-81
2021/05/05 11:39:02;;;;;;;;;;;;;;;10.16;100.00;98157.53;5097255;28;19919;-82
2021/05/05 11:41:29;;;;;;;;;;;;;;;10.16;100.00;98154.75;5079495;28;19924;-81
2021/05/05 11:43:56;;;;;;;;;;;;;;;10.25;100.00;98157.66;5097432;28;19920;-81
2021/05/05 11:46:25;;;;;;;;;;;;;;;10.45;100.00;98147.09;5097311;28;20009;-81
2021/05/05 11:48:52;;;;;;;;;;;;;;;10.14;100.00;98126.47;5113052;28;20263;-81
2021/05/05 11:51:24;;;;;;;;;;;;;;;10.20;100.00;98135.88;5097448;28;20011;-81
2021/05/05 11:53:51;;;;;;;;;;;;;;;9.80;100.00;98140.19;5095511;28;20356;-81
2021/05/05 11:56:19;;;;;;;;;;;;;;;9.60;100.00;98145.09;5084655;28;19970;-81
2021/05/05 11:58:56;;;;;;;;;;;;;;;9.77;100.00;98141.06;5079373;28;19919;-81
2021/05/05 12:01:32;;;;;;;;;;;;;;;9.54;100.00;98132.91;5063166;28;20043;-80
2021/05/05 12:04:14;;;;;;;;;;;;;;;9.44;100.00;98133.97;5091714;28;20299;-81
2021/05/05 12:06:53;;;;;;;;;;;;;;;9.35;100.00;98133.81;5062606;28;19927;-81
2021/05/05 12:09:25;;;;;;;;;;;;;;;8.83;100.00;98123.56;5097785;28;19950;-80
2021/05/05 12:12:16;;;;;;;;;;;;;;;9.16;100.00;98144.63;5078722;28;19920;-81
2021/05/05 12:14:45;;;;;;;;;;;;;;;8.96;100.00;98132.00;5075251;28;19931;-80
2021/05/05 12:17:24;;;;;;;;;;;;;;;9.09;100.00;98139.25;5088056;28;19920;-80
2021/05/05 12:19:52;;;;;;;;;;;;;;;8.97;100.00;98145.50;5076000;28;19920;-81
2021/05/05 12:22:19;;;;;;;;;;;;;;;8.88;100.00;98144.53;5066842;28;19920;-81
2021/05/05 12:25:04;;;;;;;;;;;;;;;8.40;100.00;98150.03;5087523;28;20386;-80
2021/05/05 12:27:31;;;;;;;;;;;;;;;7.88;100.00;98151.88;5093937;28;19920;-80
2021/05/05 12:29:59;;;;;;;;;;;;;;;7.95;100.00;98152.50;5070060;28;19920;-80
2021/05/05 12:32:42;;;;;;;;;;;;;;;8.18;100.00;98154.47;5094803;28;20421;-81
2021/05/05 12:35:10;;;;;;;;;;;;;;;8.55;100.00;98149.28;5080674;28;19931;-81
2021/05/05 12:37:37;;;;;;;;;;;;;;;8.45;100.00;98149.53;5080069;28;20017;-81
2021/05/05 12:40:08;;;;;;;;;;;;;;;8.16;100.00;98154.88;5080219;28;20014;-81
2021/05/05 12:42:36;;;;;;;;;;;;;;;7.85;100.00;98156.28;5040990;28;19920;-81
2021/05/05 12:45:10;;;;;;;;;;;;;;;7.82;100.00;98175.81;5076945;28;19927;-81
2021/05/05 12:47:39;;;;;;;;;;;;;;;7.54;100.00;98188.28;5067341;28;19927;-81
2021/05/05 12:50:08;;;;;;;;;;;;;;;7.48;100.00;98195.53;5075635;28;19924;-80
2021/05/05 12:52:37;;;;;;;;;;;;;;;7.42;100.00;98190.88;5057301;28;19920;-81
2021/05/05 12:55:25;;;;;;;;;;;;;;;7.24;100.00;98191.94;5079935;28;20260;-81
2021/05/05 12:57:59;;;;;;;;;;;;;;;7.11;100.00;98204.06;5052981;28;19920;-80
2021/05/05 13:00:28;;;;;;;;;;;;;;;7.14;100.00;98209.59;5077637;28;20394;-79
2021/05/05 13:03:04;;;;;;;;;;;;;;;6.97;100.00;98209.84;5065074;28;20318;-79
2021/05/05 13:05:31;;;;;;;;;;;;;;;6.66;100.00;98213.88;5076204;28;19921;-78